sensor_id;sensor_type;location;lat;lon;timestamp;temperature;humidity
4052;DHT22;2040;50.924;11.604;2023-06-14T00:01:02;12.80;99.90
4052;DHT22;2040;50.924;11.604;2023-06-14T00:03:31;12.80;99.90
4052;DHT22;2040;50.924;11.604;2023-06-14T00:05:57;12.70;99.90
4052;DHT22;2040;50.924;11.604;2023-06-14T00:08:22;12.70;99.90
4052;DHT22;2040;50.924;11.604;2023-06-14T00:10:50;12.60;99.90
4052;DHT22;2040;50.924;11.604;2023-06-14T00:13:15;12.50;99.90
4052;DHT22;2040;50.924;11.604;2023-06-14T00:15:41;12.40;99.90
4052;DHT22;2040;50.924;11.604;2023-06-14T00:18:08;12.30;99.90
4052;DHT22;2040;50.924;11.604;2023-06-14T00:20:35;12.30;99.90
4052;DHT22;2040;50.924;11.604;2023-06-14T00:23:01;12.30;99.90
4052;DHT22;2040;50.924;11.604;2023-06-14T00:25:27;12.70;99.90
4052;DHT22;2040;50.924;11.604;2023-06-14T00:27:54;12.80;99.90
4052;DHT22;2040;50.924;11.604;2023-06-14T00:30:20;12.70;99.90
4052;DHT22;2040;50.924;11.604;2023-06-14T00:32:46;12.60;99.90
4052;DHT22;2040;50.924;11.604;2023-06-14T00:35:12;12.50;99.90
4052;DHT22;2040;50.924;11.604;2023-06-14T00:37:38;12.30;99.90
4052;DHT22;2040;50.924;11.604;2023-06-14T00:40:04;12.20;99.90
4052;DHT22;2040;50.924;11.604;2023-06-14T00:42:30;12.20;99.90
4052;DHT22;2040;50.924;11.604;2023-06-14T00:44:56;12.20;99.90
4052;DHT22;2040;50.924;11.604;2023-06-14T00:47:22;12.20;99.90
4052;DHT22;2040;50.924;11.604;2023-06-14T00:49:49;12.20;99.90
4052;DHT22;2040;50.924;11.604;2023-06-14T00:52:16;12.10;99.90
4052;DHT22;2040;50.924;11.604;2023-06-14T00:54:43;12.00;99.90
4052;DHT22;2040;50.924;11.604;2023-06-14T00:57:09;11.90;99.90
4052;DHT22;2040;50.924;11.604;2023-06-14T00:59:47;11.90;99.90
4052;DHT22;2040;50.924;11.604;2023-06-14T01:02:13;11.80;99.90
4052;DHT22;2040;50.924;11.604;2023-06-14T01:04:43;11.70;99.90
4052;DHT22;2040;50.924;11.604;2023-06-14T01:12:58;11.50;99.90
4052;DHT22;2040;50.924;11.604;2023-06-14T01:15:25;11.40;99.90
4052;DHT22;2040;50.924;11.604;2023-06-14T01:17:52;11.40;99.90
4052;DHT22;2040;50.924;11.604;2023-06-14T01:20:22;11.40;99.90
4052;DHT22;2040;50.924;11.604;2023-06-14T01:22:51;11.30;99.90
4052;DHT22;2040;50.924;11.604;2023-06-14T01:25:18;11.30;99.90
4052;DHT22;2040;50.924;11.604;2023-06-14T01:27:48;11.30;99.90
4052;DHT22;2040;50.924;11.604;2023-06-14T01:30:15;11.20;99.90
4052;DHT22;2040;50.924;11.604;2023-06-14T01:32:41;11.20;99.90
4052;DHT22;2040;50.924;11.604;2023-06-14T01:35:07;11.10;99.90
4052;DHT22;2040;50.924;11.604;2023-06-14T01:37:33;11.10;99.90
4052;DHT22;2040;50.924;11.604;2023-06-14T01:39:59;11.20;99.90
4052;DHT22;2040;50.924;11.604;2023-06-14T01:42:24;11.20;99.90
4052;DHT22;2040;50.924;11.604;2023-06-14T01:44:51;11.10;99.90
4052;DHT22;2040;50.924;11.604;2023-06-14T01:47:18;11.10;99.90
4052;DHT22;2040;50.924;11.604;2023-06-14T01:49:46;11.00;99.90
4052;DHT22;2040;50.924;11.604;2023-06-14T01:52:12;11.10;99.90
4052;DHT22;2040;50.924;11.604;2023-06-14T01:54:37;11.00;99.90
4052;DHT22;2040;50.924;11.604;2023-06-14T01:57:08;11.00;99.90
4052;DHT22;2040;50.924;11.604;2023-06-14T01:59:33;11.00;99.90
4052;DHT22;2040;50.924;11.604;2023-06-14T02:02:02;11.00;99.90
4052;DHT22;2040;50.924;11.604;2023-06-14T02:04:28;11.00;99.90
4052;DHT22;2040;50.924;11.604;2023-06-14T02:06:53;10.90;99.90
4052;DHT22;2040;50.924;11.604;2023-06-14T02:09:19;10.90;99.90
4052;DHT22;2040;50.924;11.604;2023-06-14T02:11:44;10.80;99.90
4052;DHT22;2040;50.924;11.604;2023-06-14T02:14:10;10.90;99.90
4052;DHT22;2040;50.924;11.604;2023-06-14T02:16:37;10.80;99.90
4052;DHT22;2040;50.924;11.604;2023-06-14T02:19:04;10.90;99.90
4052;DHT22;2040;50.924;11.604;2023-06-14T02:21:30;10.90;99.90
4052;DHT22;2040;50.924;11.604;2023-06-14T02:23:55;10.90;99.90
4052;DHT22;2040;50.924;11.604;2023-06-14T02:26:21;10.80;99.90
4052;DHT22;2040;50.924;11.604;2023-06-14T02:28:48;10.70;99.90
4052;DHT22;2040;50.924;11.604;2023-06-14T02:31:13;10.70;99.90
4052;DHT22;2040;50.924;11.604;2023-06-14T02:33:40;10.90;99.90
4052;DHT22;2040;50.924;11.604;2023-06-14T02:36:06;10.80;99.90
4052;DHT22;2040;50.924;11.604;2023-06-14T02:38:31;10.70;99.90
4052;DHT22;2040;50.924;11.604;2023-06-14T02:40:57;10.70;99.90
4052;DHT22;2040;50.924;11.604;2023-06-14T02:43:24;10.70;99.90
4052;DHT22;2040;50.924;11.604;2023-06-14T02:45:50;10.70;99.90
4052;DHT22;2040;50.924;11.604;2023-06-14T02:48:16;10.60;99.90
4052;DHT22;2040;50.924;11.604;2023-06-14T02:50:42;10.60;99.90
4052;DHT22;2040;50.924;11.604;2023-06-14T02:53:07;10.50;99.90
4052;DHT22;2040;50.924;11.604;2023-06-14T02:55:33;10.60;99.90
4052;DHT22;2040;50.924;11.604;2023-06-14T02:57:59;10.60;99.90
4052;DHT22;2040;50.924;11.604;2023-06-14T03:00:24;10.60;99.90
4052;DHT22;2040;50.924;11.604;2023-06-14T03:02:50;10.50;99.90
4052;DHT22;2040;50.924;11.604;2023-06-14T03:05:16;10.50;99.90
4052;DHT22;2040;50.924;11.604;2023-06-14T03:07:46;10.50;99.90
4052;DHT22;2040;50.924;11.604;2023-06-14T03:10:12;10.50;99.90
4052;DHT22;2040;50.924;11.604;2023-06-14T03:12:38;10.50;99.90
4052;DHT22;2040;50.924;11.604;2023-06-14T03:15:04;10.50;99.90
4052;DHT22;2040;50.924;11.604;2023-06-14T03:17:30;10.50;99.90
4052;DHT22;2040;50.924;11.604;2023-06-14T03:19:59;10.50;99.90
4052;DHT22;2040;50.924;11.604;2023-06-14T03:22:25;10.60;99.90
4052;DHT22;2040;50.924;11.604;2023-06-14T03:24:54;10.60;99.90
4052;DHT22;2040;50.924;11.604;2023-06-14T03:27:20;10.50;99.90
4052;DHT22;2040;50.924;11.604;2023-06-14T03:29:46;10.50;99.90
4052;DHT22;2040;50.924;11.604;2023-06-14T03:32:11;10.50;99.90
4052;DHT22;2040;50.924;11.604;2023-06-14T03:34:37;10.60;99.90
4052;DHT22;2040;50.924;11.604;2023-06-14T03:37:04;10.60;99.90
4052;DHT22;2040;50.924;11.604;2023-06-14T03:39:30;10.50;99.90
4052;DHT22;2040;50.924;11.604;2023-06-14T03:41:55;10.50;99.90
4052;DHT22;2040;50.924;11.604;2023-06-14T03:44:21;10.60;99.90
4052;DHT22;2040;50.924;11.604;2023-06-14T03:46:47;10.60;99.90
4052;DHT22;2040;50.924;11.604;2023-06-14T03:49:12;10.60;99.90
4052;DHT22;2040;50.924;11.604;2023-06-14T03:51:38;10.60;99.90
4052;DHT22;2040;50.924;11.604;2023-06-14T03:54:05;10.60;99.90
4052;DHT22;2040;50.924;11.604;2023-06-14T03:56:31;10.50;99.90
4052;DHT22;2040;50.924;11.604;2023-06-14T03:58:57;10.50;99.90
4052;DHT22;2040;50.924;11.604;2023-06-14T04:01:22;10.60;99.90
4052;DHT22;2040;50.924;11.604;2023-06-14T04:03:52;10.60;99.90
4052;DHT22;2040;50.924;11.604;2023-06-14T04:06:18;10.70;99.90
4052;DHT22;2040;50.924;11.604;2023-06-14T04:08:44;10.60;99.90
4052;DHT22;2040;50.924;11.604;2023-06-14T04:11:11;10.60;99.90
4052;DHT22;2040;50.924;11.604;2023-06-14T04:13:36;10.70;99.90
4052;DHT22;2040;50.924;11.604;2023-06-14T04:16:03;10.70;99.90
4052;DHT22;2040;50.924;11.604;2023-06-14T04:18:28;10.70;99.90
4052;DHT22;2040;50.924;11.604;2023-06-14T04:20:54;10.70;99.90
4052;DHT22;2040;50.924;11.604;2023-06-14T04:23:21;10.70;99.90
4052;DHT22;2040;50.924;11.604;2023-06-14T04:25:47;10.70;99.90
4052;DHT22;2040;50.924;11.604;2023-06-14T04:28:15;10.70;99.90
4052;DHT22;2040;50.924;11.604;2023-06-14T04:30:45;10.70;99.90
4052;DHT22;2040;50.924;11.604;2023-06-14T04:33:12;10.70;99.90
4052;DHT22;2040;50.924;11.604;2023-06-14T04:35:39;10.70;99.90
4052;DHT22;2040;50.924;11.604;2023-06-14T04:38:06;10.70;99.90
4052;DHT22;2040;50.924;11.604;2023-06-14T04:40:35;10.60;99.90
4052;DHT22;2040;50.924;11.604;2023-06-14T04:43:01;10.70;99.90
4052;DHT22;2040;50.924;11.604;2023-06-14T04:45:30;10.70;99.90
4052;DHT22;2040;50.924;11.604;2023-06-14T04:47:58;10.70;99.90
4052;DHT22;2040;50.924;11.604;2023-06-14T04:50:24;10.70;99.90
4052;DHT22;2040;50.924;11.604;2023-06-14T04:52:50;10.80;99.90
4052;DHT22;2040;50.924;11.604;2023-06-14T04:55:17;10.90;99.90
4052;DHT22;2040;50.924;11.604;2023-06-14T04:57:44;10.90;99.90
4052;DHT22;2040;50.924;11.604;2023-06-14T05:00:10;11.00;99.90
4052;DHT22;2040;50.924;11.604;2023-06-14T05:02:37;11.10;99.90
4052;DHT22;2040;50.924;11.604;2023-06-14T05:05:03;11.10;99.90
4052;DHT22;2040;50.924;11.604;2023-06-14T05:07:30;11.20;99.90
4052;DHT22;2040;50.924;11.604;2023-06-14T05:09:55;11.10;99.90
4052;DHT22;2040;50.924;11.604;2023-06-14T05:12:21;11.20;99.90
4052;DHT22;2040;50.924;11.604;2023-06-14T05:14:46;11.20;99.90
4052;DHT22;2040;50.924;11.604;2023-06-14T05:17:12;11.20;99.90
4052;DHT22;2040;50.924;11.604;2023-06-14T05:19:37;11.30;99.90
4052;DHT22;2040;50.924;11.604;2023-06-14T05:22:03;11.40;99.90
4052;DHT22;2040;50.924;11.604;2023-06-14T05:24:29;11.50;99.90
4052;DHT22;2040;50.924;11.604;2023-06-14T05:26:56;11.60;99.90
4052;DHT22;2040;50.924;11.604;2023-06-14T05:29:21;11.70;99.90
4052;DHT22;2040;50.924;11.604;2023-06-14T05:31:47;11.70;99.90
4052;DHT22;2040;50.924;11.604;2023-06-14T05:34:13;11.80;99.90
4052;DHT22;2040;50.924;11.604;2023-06-14T05:36:38;12.00;99.90
4052;DHT22;2040;50.924;11.604;2023-06-14T05:39:04;12.10;99.90
4052;DHT22;2040;50.924;11.604;2023-06-14T05:41:31;12.10;99.90
4052;DHT22;2040;50.924;11.604;2023-06-14T05:43:57;12.20;99.90
4052;DHT22;2040;50.924;11.604;2023-06-14T05:46:23;12.20;99.90
4052;DHT22;2040;50.924;11.604;2023-06-14T05:48:54;12.30;99.90
4052;DHT22;2040;50.924;11.604;2023-06-14T05:51:20;12.40;99.90
4052;DHT22;2040;50.924;11.604;2023-06-14T05:53:50;12.50;99.90
4052;DHT22;2040;50.924;11.604;2023-06-14T05:56:16;12.50;99.90
4052;DHT22;2040;50.924;11.604;2023-06-14T05:58:43;12.60;99.90
4052;DHT22;2040;50.924;11.604;2023-06-14T06:01:09;12.70;99.90
4052;DHT22;2040;50.924;11.604;2023-06-14T06:03:34;12.90;99.90
4052;DHT22;2040;50.924;11.604;2023-06-14T06:06:00;13.00;99.90
4052;DHT22;2040;50.924;11.604;2023-06-14T06:08:27;13.00;99.90
4052;DHT22;2040;50.924;11.604;2023-06-14T06:10:53;13.10;99.90
4052;DHT22;2040;50.924;11.604;2023-06-14T06:13:19;13.10;99.90
4052;DHT22;2040;50.924;11.604;2023-06-14T06:15:44;13.30;99.90
4052;DHT22;2040;50.924;11.604;2023-06-14T06:18:10;13.30;99.90
4052;DHT22;2040;50.924;11.604;2023-06-14T06:20:37;13.40;99.90
4052;DHT22;2040;50.924;11.604;2023-06-14T06:23:02;13.50;99.90
4052;DHT22;2040;50.924;11.604;2023-06-14T06:25:28;13.60;99.90
4052;DHT22;2040;50.924;11.604;2023-06-14T06:27:54;13.60;99.90
4052;DHT22;2040;50.924;11.604;2023-06-14T06:30:21;13.60;99.90
4052;DHT22;2040;50.924;11.604;2023-06-14T06:32:46;13.70;99.90
4052;DHT22;2040;50.924;11.604;2023-06-14T06:35:12;13.80;99.90
4052;DHT22;2040;50.924;11.604;2023-06-14T06:37:39;13.90;99.90
4052;DHT22;2040;50.924;11.604;2023-06-14T06:40:05;14.00;99.90
4052;DHT22;2040;50.924;11.604;2023-06-14T06:42:31;14.10;99.90
4052;DHT22;2040;50.924;11.604;2023-06-14T06:44:57;14.10;99.90
4052;DHT22;2040;50.924;11.604;2023-06-14T06:47:23;14.10;99.90
4052;DHT22;2040;50.924;11.604;2023-06-14T06:49:49;14.30;99.90
4052;DHT22;2040;50.924;11.604;2023-06-14T06:52:14;14.30;99.90
4052;DHT22;2040;50.924;11.604;2023-06-14T06:54:40;14.40;99.90
4052;DHT22;2040;50.924;11.604;2023-06-14T06:57:06;14.40;99.90
4052;DHT22;2040;50.924;11.604;2023-06-14T06:59:32;14.50;99.90
4052;DHT22;2040;50.924;11.604;2023-06-14T07:01:58;14.60;99.90
4052;DHT22;2040;50.924;11.604;2023-06-14T07:04:23;14.70;99.90
4052;DHT22;2040;50.924;11.604;2023-06-14T07:06:49;14.70;99.90
4052;DHT22;2040;50.924;11.604;2023-06-14T07:09:15;14.90;99.90
4052;DHT22;2040;50.924;11.604;2023-06-14T07:11:43;14.90;99.90
4052;DHT22;2040;50.924;11.604;2023-06-14T07:14:09;15.00;99.90
4052;DHT22;2040;50.924;11.604;2023-06-14T07:16:35;15.20;99.90
4052;DHT22;2040;50.924;11.604;2023-06-14T07:19:01;15.20;99.90
4052;DHT22;2040;50.924;11.604;2023-06-14T07:21:27;15.20;99.90
4052;DHT22;2040;50.924;11.604;2023-06-14T07:23:53;15.30;99.90
4052;DHT22;2040;50.924;11.604;2023-06-14T07:26:20;15.40;99.90
4052;DHT22;2040;50.924;11.604;2023-06-14T07:28:46;15.50;99.90
4052;DHT22;2040;50.924;11.604;2023-06-14T07:31:13;15.60;99.90
4052;DHT22;2040;50.924;11.604;2023-06-14T07:33:40;15.70;99.90
4052;DHT22;2040;50.924;11.604;2023-06-14T07:36:05;15.90;99.90
4052;DHT22;2040;50.924;11.604;2023-06-14T07:38:31;15.90;99.90
4052;DHT22;2040;50.924;11.604;2023-06-14T07:40:56;16.00;99.90
4052;DHT22;2040;50.924;11.604;2023-06-14T07:43:22;16.10;99.90
4052;DHT22;2040;50.924;11.604;2023-06-14T07:45:48;16.20;99.90
4052;DHT22;2040;50.924;11.604;2023-06-14T07:48:13;16.50;99.90
4052;DHT22;2040;50.924;11.604;2023-06-14T07:50:39;16.50;99.90
4052;DHT22;2040;50.924;11.604;2023-06-14T07:53:04;16.50;99.90
4052;DHT22;2040;50.924;11.604;2023-06-14T07:55:30;16.60;99.90
4052;DHT22;2040;50.924;11.604;2023-06-14T07:57:58;16.70;99.90
4052;DHT22;2040;50.924;11.604;2023-06-14T08:00:23;16.90;99.90
4052;DHT22;2040;50.924;11.604;2023-06-14T08:02:49;17.00;99.90
4052;DHT22;2040;50.924;11.604;2023-06-14T08:05:17;17.00;99.90
4052;DHT22;2040;50.924;11.604;2023-06-14T08:07:43;17.00;99.90
4052;DHT22;2040;50.924;11.604;2023-06-14T08:10:08;17.20;99.90
4052;DHT22;2040;50.924;11.604;2023-06-14T08:12:34;17.30;99.90
4052;DHT22;2040;50.924;11.604;2023-06-14T08:15:00;17.40;99.90
4052;DHT22;2040;50.924;11.604;2023-06-14T08:17:26;17.40;99.90
4052;DHT22;2040;50.924;11.604;2023-06-14T08:19:53;17.50;99.90
4052;DHT22;2040;50.924;11.604;2023-06-14T08:22:23;17.80;99.90
4052;DHT22;2040;50.924;11.604;2023-06-14T08:24:50;18.10;99.90
4052;DHT22;2040;50.924;11.604;2023-06-14T08:27:15;18.20;99.90
4052;DHT22;2040;50.924;11.604;2023-06-14T08:29:41;18.00;99.90
4052;DHT22;2040;50.924;11.604;2023-06-14T08:32:07;18.10;99.90
4052;DHT22;2040;50.924;11.604;2023-06-14T08:34:37;18.10;99.90
4052;DHT22;2040;50.924;11.604;2023-06-14T08:37:15;18.20;99.90
4052;DHT22;2040;50.924;11.604;2023-06-14T08:39:41;18.40;99.90
4052;DHT22;2040;50.924;11.604;2023-06-14T08:42:09;18.50;99.90
4052;DHT22;2040;50.924;11.604;2023-06-14T08:44:36;18.80;99.90
4052;DHT22;2040;50.924;11.604;2023-06-14T08:47:01;18.90;99.90
4052;DHT22;2040;50.924;11.604;2023-06-14T08:49:29;19.10;99.90
4052;DHT22;2040;50.924;11.604;2023-06-14T08:52:01;18.80;99.90
4052;DHT22;2040;50.924;11.604;2023-06-14T08:54:30;18.90;99.90
4052;DHT22;2040;50.924;11.604;2023-06-14T08:56:56;19.20;99.90
4052;DHT22;2040;50.924;11.604;2023-06-14T08:59:31;19.50;99.90
4052;DHT22;2040;50.924;11.604;2023-06-14T09:02:05;19.60;99.90
4052;DHT22;2040;50.924;11.604;2023-06-14T09:04:31;19.60;99.90
4052;DHT22;2040;50.924;11.604;2023-06-14T09:06:57;19.70;99.90
4052;DHT22;2040;50.924;11.604;2023-06-14T09:09:24;19.90;99.90
4052;DHT22;2040;50.924;11.604;2023-06-14T09:11:51;20.20;99.90
4052;DHT22;2040;50.924;11.604;2023-06-14T09:14:18;20.30;99.90
4052;DHT22;2040;50.924;11.604;2023-06-14T09:16:44;20.00;99.90
4052;DHT22;2040;50.924;11.604;2023-06-14T09:19:21;19.80;99.90
4052;DHT22;2040;50.924;11.604;2023-06-14T09:21:47;19.90;99.90
4052;DHT22;2040;50.924;11.604;2023-06-14T09:24:14;20.00;99.90
4052;DHT22;2040;50.924;11.604;2023-06-14T09:26:39;20.10;99.90
4052;DHT22;2040;50.924;11.604;2023-06-14T09:29:06;20.10;99.90
4052;DHT22;2040;50.924;11.604;2023-06-14T09:31:31;20.50;99.90
4052;DHT22;2040;50.924;11.604;2023-06-14T09:33:58;20.70;99.90
4052;DHT22;2040;50.924;11.604;2023-06-14T09:36:26;20.50;99.90
4052;DHT22;2040;50.924;11.604;2023-06-14T09:39:02;20.30;99.90
4052;DHT22;2040;50.924;11.604;2023-06-14T09:41:40;20.70;99.90
4052;DHT22;2040;50.924;11.604;2023-06-14T09:44:07;20.80;99.90
4052;DHT22;2040;50.924;11.604;2023-06-14T09:46:34;20.70;99.90
4052;DHT22;2040;50.924;11.604;2023-06-14T09:49:01;20.90;99.90
4052;DHT22;2040;50.924;11.604;2023-06-14T09:51:28;21.10;99.90
4052;DHT22;2040;50.924;11.604;2023-06-14T09:53:58;21.20;99.90
4052;DHT22;2040;50.924;11.604;2023-06-14T09:56:29;21.40;99.90
4052;DHT22;2040;50.924;11.604;2023-06-14T09:58:56;21.80;99.90
4052;DHT22;2040;50.924;11.604;2023-06-14T10:01:24;21.70;99.90
4052;DHT22;2040;50.924;11.604;2023-06-14T10:03:50;22.00;99.90
4052;DHT22;2040;50.924;11.604;2023-06-14T10:06:21;22.10;99.90
4052;DHT22;2040;50.924;11.604;2023-06-14T10:08:52;22.00;99.90
4052;DHT22;2040;50.924;11.604;2023-06-14T10:11:17;21.70;99.90
4052;DHT22;2040;50.924;11.604;2023-06-14T10:13:43;21.60;99.90
4052;DHT22;2040;50.924;11.604;2023-06-14T10:16:10;21.30;99.90
4052;DHT22;2040;50.924;11.604;2023-06-14T10:21:18;21.40;99.90
4052;DHT22;2040;50.924;11.604;2023-06-14T10:23:47;21.40;99.90
4052;DHT22;2040;50.924;11.604;2023-06-14T10:26:23;21.20;99.90
4052;DHT22;2040;50.924;11.604;2023-06-14T10:29:08;21.10;99.90
4052;DHT22;2040;50.924;11.604;2023-06-14T10:31:48;21.30;99.90
4052;DHT22;2040;50.924;11.604;2023-06-14T10:34:24;21.90;99.90
4052;DHT22;2040;50.924;11.604;2023-06-14T10:37:10;22.50;99.90
4052;DHT22;2040;50.924;11.604;2023-06-14T10:39:44;23.00;99.90
4052;DHT22;2040;50.924;11.604;2023-06-14T10:42:11;23.10;99.90
4052;DHT22;2040;50.924;11.604;2023-06-14T10:44:38;23.20;99.90
4052;DHT22;2040;50.924;11.604;2023-06-14T10:47:08;23.00;99.90
4052;DHT22;2040;50.924;11.604;2023-06-14T10:52:16;23.50;99.90
4052;DHT22;2040;50.924;11.604;2023-06-14T10:57:27;22.80;99.90
4052;DHT22;2040;50.924;11.604;2023-06-14T10:59:53;22.60;99.90
4052;DHT22;2040;50.924;11.604;2023-06-14T11:04:52;22.30;99.90
4052;DHT22;2040;50.924;11.604;2023-06-14T11:07:48;22.30;99.90
4052;DHT22;2040;50.924;11.604;2023-06-14T11:10:38;22.60;99.90
4052;DHT22;2040;50.924;11.604;2023-06-14T11:13:08;22.90;99.90
4052;DHT22;2040;50.924;11.604;2023-06-14T11:15:35;23.00;99.90
4052;DHT22;2040;50.924;11.604;2023-06-14T11:18:02;23.20;99.90
4052;DHT22;2040;50.924;11.604;2023-06-14T11:20:32;23.30;99.90
4052;DHT22;2040;50.924;11.604;2023-06-14T11:23:00;23.30;99.90
4052;DHT22;2040;50.924;11.604;2023-06-14T11:25:26;22.80;99.90
4052;DHT22;2040;50.924;11.604;2023-06-14T11:27:56;22.30;99.90
4052;DHT22;2040;50.924;11.604;2023-06-14T11:30:31;22.60;99.90
4052;DHT22;2040;50.924;11.604;2023-06-14T11:33:00;23.30;99.90
4052;DHT22;2040;50.924;11.604;2023-06-14T11:35:26;22.80;99.90
4052;DHT22;2040;50.924;11.604;2023-06-14T11:37:56;22.70;99.90
4052;DHT22;2040;50.924;11.604;2023-06-14T11:40:26;23.10;99.90
4052;DHT22;2040;50.924;11.604;2023-06-14T11:43:00;23.50;99.90
4052;DHT22;2040;50.924;11.604;2023-06-14T11:45:26;24.10;99.90
4052;DHT22;2040;50.924;11.604;2023-06-14T11:47:54;24.40;99.90
4052;DHT22;2040;50.924;11.604;2023-06-14T11:50:22;24.60;99.90
4052;DHT22;2040;50.924;11.604;2023-06-14T11:52:54;24.10;99.70
4052;DHT22;2040;50.924;11.604;2023-06-14T11:55:21;23.20;99.90
4052;DHT22;2040;50.924;11.604;2023-06-14T11:57:47;23.30;99.90
4052;DHT22;2040;50.924;11.604;2023-06-14T12:00:14;23.30;99.90
4052;DHT22;2040;50.924;11.604;2023-06-14T12:02:41;23.50;99.90
4052;DHT22;2040;50.924;11.604;2023-06-14T12:05:07;24.10;99.90
4052;DHT22;2040;50.924;11.604;2023-06-14T12:07:36;24.20;99.90
4052;DHT22;2040;50.924;11.604;2023-06-14T12:12:35;24.00;99.90
4052;DHT22;2040;50.924;11.604;2023-06-14T12:15:03;23.20;99.90
4052;DHT22;2040;50.924;11.604;2023-06-14T12:17:32;22.60;99.90
4052;DHT22;2040;50.924;11.604;2023-06-14T12:19:58;22.40;99.90
4052;DHT22;2040;50.924;11.604;2023-06-14T12:22:24;22.10;99.90
4052;DHT22;2040;50.924;11.604;2023-06-14T12:24:49;22.50;99.90
4052;DHT22;2040;50.924;11.604;2023-06-14T12:27:15;23.10;99.70
4052;DHT22;2040;50.924;11.604;2023-06-14T12:29:44;23.40;99.80
4052;DHT22;2040;50.924;11.604;2023-06-14T12:32:09;23.80;99.50
4052;DHT22;2040;50.924;11.604;2023-06-14T12:34:35;24.20;99.90
4052;DHT22;2040;50.924;11.604;2023-06-14T12:37:01;24.70;98.10
4052;DHT22;2040;50.924;11.604;2023-06-14T12:39:27;24.60;98.60
4052;DHT22;2040;50.924;11.604;2023-06-14T12:41:53;24.10;98.80
4052;DHT22;2040;50.924;11.604;2023-06-14T12:44:19;23.90;99.90
4052;DHT22;2040;50.924;11.604;2023-06-14T12:46:45;23.40;99.60
4052;DHT22;2040;50.924;11.604;2023-06-14T12:49:11;23.50;99.90
4052;DHT22;2040;50.924;11.604;2023-06-14T12:51:38;24.10;99.80
4052;DHT22;2040;50.924;11.604;2023-06-14T12:54:05;24.70;99.10
4052;DHT22;2040;50.924;11.604;2023-06-14T12:56:30;24.90;96.50
4052;DHT22;2040;50.924;11.604;2023-06-14T12:59:02;25.30;97.10
4052;DHT22;2040;50.924;11.604;2023-06-14T13:01:27;25.40;99.00
4052;DHT22;2040;50.924;11.604;2023-06-14T13:03:53;24.60;97.50
4052;DHT22;2040;50.924;11.604;2023-06-14T13:06:22;23.40;97.00
4052;DHT22;2040;50.924;11.604;2023-06-14T13:08:48;23.50;99.90
4052;DHT22;2040;50.924;11.604;2023-06-14T13:11:14;23.80;97.20
4052;DHT22;2040;50.924;11.604;2023-06-14T13:13:39;24.20;97.30
4052;DHT22;2040;50.924;11.604;2023-06-14T13:16:05;24.80;97.40
4052;DHT22;2040;50.924;11.604;2023-06-14T13:18:31;25.50;97.80
4052;DHT22;2040;50.924;11.604;2023-06-14T13:20:56;25.90;95.50
4052;DHT22;2040;50.924;11.604;2023-06-14T13:23:22;25.10;97.10
4052;DHT22;2040;50.924;11.604;2023-06-14T13:25:47;25.00;99.00
4052;DHT22;2040;50.924;11.604;2023-06-14T13:28:15;25.60;97.70
4052;DHT22;2040;50.924;11.604;2023-06-14T13:30:40;26.00;97.50
4052;DHT22;2040;50.924;11.604;2023-06-14T13:33:06;26.20;95.30
4052;DHT22;2040;50.924;11.604;2023-06-14T13:35:31;26.00;95.70
4052;DHT22;2040;50.924;11.604;2023-06-14T13:37:57;26.30;95.50
4052;DHT22;2040;50.924;11.604;2023-06-14T13:40:23;25.90;96.10
4052;DHT22;2040;50.924;11.604;2023-06-14T13:42:48;25.70;95.30
4052;DHT22;2040;50.924;11.604;2023-06-14T13:45:15;25.70;95.60
4052;DHT22;2040;50.924;11.604;2023-06-14T13:47:41;25.00;95.00
4052;DHT22;2040;50.924;11.604;2023-06-14T13:50:07;25.00;97.50
4052;DHT22;2040;50.924;11.604;2023-06-14T13:52:33;24.80;96.80
4052;DHT22;2040;50.924;11.604;2023-06-14T13:55:00;25.10;95.10
4052;DHT22;2040;50.924;11.604;2023-06-14T13:57:26;25.30;95.30
4052;DHT22;2040;50.924;11.604;2023-06-14T13:59:55;25.60;94.10
4052;DHT22;2040;50.924;11.604;2023-06-14T14:02:29;25.50;94.50
4052;DHT22;2040;50.924;11.604;2023-06-14T14:04:55;25.60;95.50
4052;DHT22;2040;50.924;11.604;2023-06-14T14:07:21;25.90;93.60
4052;DHT22;2040;50.924;11.604;2023-06-14T14:09:47;26.20;95.40
4052;DHT22;2040;50.924;11.604;2023-06-14T14:12:13;26.80;95.50
4052;DHT22;2040;50.924;11.604;2023-06-14T14:14:40;26.80;94.10
4052;DHT22;2040;50.924;11.604;2023-06-14T14:17:06;26.60;93.10
4052;DHT22;2040;50.924;11.604;2023-06-14T14:19:32;26.00;92.90
4052;DHT22;2040;50.924;11.604;2023-06-14T14:21:58;25.20;94.20
4052;DHT22;2040;50.924;11.604;2023-06-14T14:24:24;24.60;94.00
4052;DHT22;2040;50.924;11.604;2023-06-14T14:26:51;24.60;94.60
4052;DHT22;2040;50.924;11.604;2023-06-14T14:29:19;25.00;93.80
4052;DHT22;2040;50.924;11.604;2023-06-14T14:31:48;25.40;95.40
4052;DHT22;2040;50.924;11.604;2023-06-14T14:34:13;25.50;94.80
4052;DHT22;2040;50.924;11.604;2023-06-14T14:36:39;25.90;95.70
4052;DHT22;2040;50.924;11.604;2023-06-14T14:39:08;26.20;94.40
4052;DHT22;2040;50.924;11.604;2023-06-14T14:41:34;26.20;93.60
4052;DHT22;2040;50.924;11.604;2023-06-14T14:43:59;25.30;94.70
4052;DHT22;2040;50.924;11.604;2023-06-14T14:46:26;24.90;94.70
4052;DHT22;2040;50.924;11.604;2023-06-14T14:48:53;24.60;94.90
4052;DHT22;2040;50.924;11.604;2023-06-14T14:51:18;24.40;96.20
4052;DHT22;2040;50.924;11.604;2023-06-14T14:53:44;24.50;96.50
4052;DHT22;2040;50.924;11.604;2023-06-14T14:56:10;25.10;95.20
4052;DHT22;2040;50.924;11.604;2023-06-14T14:58:37;24.60;94.50
4052;DHT22;2040;50.924;11.604;2023-06-14T15:01:03;24.80;94.60
4052;DHT22;2040;50.924;11.604;2023-06-14T15:03:31;24.80;94.20
4052;DHT22;2040;50.924;11.604;2023-06-14T15:05:56;25.20;94.30
4052;DHT22;2040;50.924;11.604;2023-06-14T15:08:22;25.40;93.60
4052;DHT22;2040;50.924;11.604;2023-06-14T15:10:48;25.60;94.40
4052;DHT22;2040;50.924;11.604;2023-06-14T15:13:14;25.90;93.30
4052;DHT22;2040;50.924;11.604;2023-06-14T15:15:39;25.40;92.40
4052;DHT22;2040;50.924;11.604;2023-06-14T15:18:07;24.60;92.30
4052;DHT22;2040;50.924;11.604;2023-06-14T15:20:34;23.60;92.50
4052;DHT22;2040;50.924;11.604;2023-06-14T15:23:00;23.00;93.90
4052;DHT22;2040;50.924;11.604;2023-06-14T15:25:29;22.80;94.70
4052;DHT22;2040;50.924;11.604;2023-06-14T15:27:57;22.60;93.80
4052;DHT22;2040;50.924;11.604;2023-06-14T15:30:23;22.50;94.30
4052;DHT22;2040;50.924;11.604;2023-06-14T15:32:49;22.70;95.40
4052;DHT22;2040;50.924;11.604;2023-06-14T15:35:17;23.00;95.80
4052;DHT22;2040;50.924;11.604;2023-06-14T15:37:43;23.20;97.00
4052;DHT22;2040;50.924;11.604;2023-06-14T15:40:09;23.40;97.20
4052;DHT22;2040;50.924;11.604;2023-06-14T15:42:35;23.40;97.30
4052;DHT22;2040;50.924;11.604;2023-06-14T15:45:01;23.50;98.30
4052;DHT22;2040;50.924;11.604;2023-06-14T15:47:26;23.50;97.90
4052;DHT22;2040;50.924;11.604;2023-06-14T15:49:52;23.60;98.90
4052;DHT22;2040;50.924;11.604;2023-06-14T15:52:18;24.00;99.30
4052;DHT22;2040;50.924;11.604;2023-06-14T15:54:43;23.80;98.10
4052;DHT22;2040;50.924;11.604;2023-06-14T15:57:09;24.00;98.00
4052;DHT22;2040;50.924;11.604;2023-06-14T15:59:35;24.30;99.90
4052;DHT22;2040;50.924;11.604;2023-06-14T16:02:00;24.40;98.70